HRGA4: Little River, Horatio, AR

Data processed at Sat Mar 10 2018 23:10


All information presented herein is the property of the government of the United States of America and may be revised or deleted at any time without prior notice.
Dissemination of this information without the expressed written consent of the Public Affairs Office, Tulsa District U.S. Army Corps of Engineers is strictly prohibited.
These data are gathered electronically and, as presented, have not undergone any form of quality control. These data are not guaranteed to be valid or correct.
Go to home page.
Go to station list.

Upstream stations:

Downstream station:
Previous Day
Next Day
Current Day
    
SHEF ID:       HRGA4     Little River near Horatio, AR
STATION TYPE:  

               PRECIP     STAGE  RIV-FLOW  BAT-LOAD
                   in        ft       cfs      volt
              Ccp-Rev   Ccp-Rev   Ccp-Rev   Ccp-Rev
(US/Central)
03/08 00:00      0.00     18.47     12631     12.97
03/08 01:00      0.00     18.61     12796     12.89
03/08 02:00      0.00     18.77     12985     12.89
03/08 03:00      0.00     18.87     13104     12.81
03/08 04:00      0.00     18.98     13235     12.81
03/08 05:00      0.00     19.08     13354     12.73
03/08 06:00      0.00     19.17     13462     12.73
03/08 07:00      0.00     19.25     13558     12.73
03/08 08:00      0.00     19.29     13606     12.73
03/08 09:00      0.00     19.30     13618     12.81
03/08 10:00      0.00     19.28     13594     13.29
03/08 11:00      0.00     19.27     13582     14.08
03/08 12:00      0.00     19.26     13570     13.76
03/08 13:00      0.00     19.23     13534     13.53
03/08 14:00      0.00     19.25     13558     13.37
03/08 15:00      0.00     19.24     13546     13.29
03/08 16:00      0.00     19.31     13630     13.37
03/08 17:00      0.00     19.35     13678     13.37
03/08 18:00      0.00     19.39     13726     13.29
03/08 19:00      0.00     19.41     13750     13.21
03/08 20:00      0.00     19.45     13798     13.05
03/08 21:00      0.00     19.44     13786     13.05
03/08 22:00      0.00     19.46     13810     13.05
03/08 23:00      0.00     19.45     13798     12.97